Time;durP1;ratioP1;P1;durP2;ratioP2;P2;SDS_P1;SDS_P2;PMS_P1;PMS_P2;Temp;Humidity;BMP_temperature;BMP_pressure;BME280_temperature;BME280_humidity;BME280_pressure;Samples;Min_cycle;Max_cycle;Signal;HPM_P1;HPM_P2
2021/06/05 00:01:04;;;;;;;;;;;;;;;-142.75;61.87;77038.81;5052089;28;20025;-74
2021/06/05 00:03:29;;;;;;;36.78;26.88;;;;;;;-142.75;62.18;77042.75;5051507;28;20402;-75
2021/06/05 00:05:59;;;;;;;;;;;;;;;-142.75;62.10;77034.88;5050399;28;20025;-75
2021/06/05 00:08:28;;;;;;;41.17;26.85;;;;;;;-142.75;61.96;77038.81;5051566;28;19919;-76
2021/06/05 00:11:01;;;;;;;35.05;27.98;;;;;;;-142.75;62.33;77042.75;5051400;28;20036;-74
2021/06/05 00:13:33;;;;;;;42.78;30.63;;;;;;;-142.75;62.12;77060.47;5051491;28;20486;-77
2021/06/05 00:16:00;;;;;;;40.20;31.40;;;;;;;-142.75;62.21;77060.47;5040579;28;20032;-75
2021/06/05 00:18:28;;;;;;;39.88;31.10;;;;;;;-142.75;62.27;77066.38;5049724;28;20017;-75
2021/06/05 00:20:54;;;;;;;48.33;32.72;;;;;;;-142.75;62.51;77070.31;5051303;28;20551;-75
2021/06/05 00:23:20;;;;;;;;;;;;;;;-142.75;62.89;77074.25;5042839;28;20033;-75
2021/06/05 00:25:48;;;;;;;43.95;33.70;;;;;;;-142.75;62.58;77070.31;5048931;28;19919;-75
2021/06/05 00:28:13;;;;;;;43.50;33.15;;;;;;;-142.75;62.89;77078.19;5051108;28;20017;-75
2021/06/05 00:30:39;;;;;;;;;;;;;;;-142.75;62.75;77076.22;5050319;28;20033;-75
2021/06/05 00:33:06;;;;;;;45.25;32.05;;;;;;;-142.75;63.08;77076.22;5051232;28;20386;-76
2021/06/05 00:35:32;;;;;;;44.53;33.45;;;;;;;-142.75;62.94;77078.19;5050608;28;20506;-76
2021/06/05 00:37:58;;;;;;;47.60;33.65;;;;;;;-142.75;63.14;77074.25;5051019;28;20482;-76
2021/06/05 00:40:28;;;;;;;42.67;32.42;;;;;;;-142.75;63.11;77076.22;5050847;28;20103;-76
2021/06/05 00:42:55;;;;;;;44.90;33.80;;;;;;;-142.75;62.99;77060.47;5045522;28;20192;-75
2021/06/05 00:45:22;;;;;;;45.83;33.33;;;;;;;-142.75;63.05;77066.38;5048219;28;20502;-77
2021/06/05 00:47:48;;;;;;;44.47;32.72;;;;;;;-142.75;63.21;77066.38;5049449;28;20016;-75
2021/06/05 00:50:13;;;;;;;;;;;;;;;-142.75;62.93;77066.38;5051367;28;20558;-76
2021/06/05 00:52:40;;;;;;;43.13;32.22;;;;;;;-142.75;62.83;77058.50;5049599;28;19978;-76
2021/06/05 00:55:07;;;;;;;46.63;32.80;;;;;;;-142.75;63.17;77064.41;5050071;28;20052;-75
2021/06/05 00:57:33;;;;;;;45.72;33.55;;;;;;;-142.75;63.16;77066.38;5050715;28;20074;-75
2021/06/05 00:59:58;;;;;;;;;;;;;;;-142.75;63.03;77066.38;5051190;28;20037;-76
2021/06/05 01:02:23;;;;;;;44.67;33.00;;;;;;;-142.75;63.06;77074.25;5049138;28;20393;-76
2021/06/05 01:04:49;;;;;;;;;;;;;;;-142.75;62.99;77080.16;5047129;28;20052;-74
2021/06/05 01:07:25;;;;;;;43.97;32.90;;;;;;;-142.75;63.11;77088.03;5048996;28;19920;-76
2021/06/05 01:10:32;;;;;;;46.63;34.92;;;;;;;-142.75;63.23;77093.94;5050510;28;20075;-76
2021/06/05 01:13:12;;;;;;;49.15;36.33;;;;;;;-142.75;63.51;77101.81;5031936;28;20415;-76
2021/06/05 01:15:49;;;;;;;46.90;35.63;;;;;;;-142.75;63.50;77101.81;5030403;28;20078;-76
2021/06/05 01:18:18;;;;;;;49.20;35.50;;;;;;;-142.75;63.68;77097.88;5049383;28;20017;-76
2021/06/05 01:21:11;;;;;;;46.90;35.17;;;;;;;-142.75;63.41;77097.88;5049176;28;20028;-75
2021/06/05 01:23:51;;;;;;;52.33;37.42;;;;;;;-142.75;63.39;77091.97;5050563;28;20055;-75
2021/06/05 01:26:25;;;;;;;52.60;38.38;;;;;;;-142.75;63.92;77097.88;5049985;28;20648;-75
2021/06/05 01:29:07;;;;;;;53.42;38.45;;;;;;;-142.75;63.85;77097.88;5050531;28;20028;-76
2021/06/05 01:31:38;;;;;;;53.58;38.25;;;;;;;-142.75;63.74;77097.88;5050452;28;20479;-76
2021/06/05 01:34:05;;;;;;;54.17;38.15;;;;;;;-142.75;63.87;77097.88;5050386;28;20033;-75
2021/06/05 01:36:33;;;;;;;51.03;38.70;;;;;;;-142.75;64.25;77090.00;5048519;28;20027;-76
2021/06/05 01:39:04;;;;;;;51.53;39.05;;;;;;;-142.75;63.83;77090.00;5050228;28;20050;-76
2021/06/05 01:41:32;;;;;;;53.97;37.97;;;;;;;-142.75;63.98;77097.88;5049014;28;20040;-76
2021/06/05 01:43:59;;;;;;;50.03;37.75;;;;;;;-142.75;63.77;77097.88;5050274;28;20410;-75
2021/06/05 01:46:32;;;;;;;50.33;37.22;;;;;;;-142.75;63.99;77103.78;5049779;28;20033;-75
2021/06/05 01:48:57;;;;;;;52.75;38.45;;;;;;;-142.75;64.07;77101.81;5050262;28;20044;-75
2021/06/05 01:51:23;;;;;;;;;;;;;;;-142.75;64.23;77103.78;5050642;28;20028;-76
2021/06/05 01:53:56;;;;;;;53.70;38.67;;;;;;;-142.75;64.13;77101.81;5042923;28;19999;-75
2021/06/05 01:56:30;;;;;;;53.67;38.90;;;;;;;-142.75;64.59;77101.81;5030071;28;20033;-75
2021/06/05 01:58:56;;;;;;;53.78;39.30;;;;;;;-142.75;64.44;77099.84;5029068;28;20035;-76
2021/06/05 02:01:22;;;;;;;55.55;39.60;;;;;;;-142.75;64.25;77101.81;5040454;28;20025;-76
2021/06/05 02:03:49;;;;;;;;;;;;;;;-142.75;64.26;77105.75;5050452;28;20549;-76
2021/06/05 02:06:14;;;;;;;53.45;40.92;;;;;;;-142.75;64.60;77109.69;5050726;28;19916;-76
2021/06/05 02:08:39;;;;;;;;;;;;;;;-142.75;64.84;77113.63;5052916;28;20073;-76
2021/06/05 02:11:08;;;;;;;55.30;41.30;;;;;;;-142.75;64.60;77117.56;5052527;28;19962;-75
2021/06/05 02:13:42;;;;;;;55.05;41.88;;;;;;;-142.75;64.39;77115.59;5039915;28;20033;-76
2021/06/05 02:16:19;;;;;;;52.63;38.17;;;;;;;-142.75;64.56;77129.38;5033454;28;20102;-75
2021/06/05 02:18:50;;;;;;;51.00;37.63;;;;;;;-142.75;64.37;77127.41;5033797;28;20017;-75
2021/06/05 02:21:19;;;;;;;52.75;37.42;;;;;;;-142.75;64.33;77137.25;5033801;28;20025;-76
2021/06/05 02:24:07;;;;;;;49.03;33.92;;;;;;;-142.75;64.38;77145.13;5032355;28;20025;-75
2021/06/05 02:26:35;;;;;;;41.60;32.25;;;;;;;-142.75;64.29;77145.13;5035922;28;20158;-75
2021/06/05 02:29:04;;;;;;;48.40;32.58;;;;;;;-142.75;64.37;77141.19;5032171;28;20040;-75
2021/06/05 02:31:30;;;;;;;38.83;28.65;;;;;;;-142.75;64.24;77149.06;5033305;28;20453;-75
2021/06/05 02:33:59;;;;;;;41.75;29.02;;;;;;;-142.75;64.61;77149.06;5053335;28;20537;-75
2021/06/05 02:36:24;;;;;;;42.33;28.85;;;;;;;-142.75;64.57;77153.00;5036325;28;20087;-76
2021/06/05 02:38:50;;;;;;;;;;;;;;;-142.75;64.60;77158.91;5032580;28;20017;-76
2021/06/05 02:41:18;;;;;;;38.22;27.17;;;;;;;-142.75;64.56;77164.81;5033342;28;19956;-76
2021/06/05 02:43:44;;;;;;;33.67;27.02;;;;;;;-142.75;64.66;77172.69;5032064;28;20025;-76
2021/06/05 02:46:21;;;;;;;40.58;28.05;;;;;;;-142.75;64.91;77172.69;5032889;28;20100;-74
2021/06/05 02:48:59;;;;;;;;;;;;;;;-142.75;64.87;77172.69;5033680;28;20101;-75
2021/06/05 02:51:28;;;;;;;39.30;27.13;;;;;;;-142.75;64.86;77180.56;5042309;28;20298;-76
2021/06/05 02:53:53;;;;;;;37.28;26.95;;;;;;;-142.75;64.66;77172.69;5052914;28;20429;-76
2021/06/05 02:56:19;;;;;;;;;;;;;;;-142.75;65.00;77176.63;5053024;28;20029;-76
2021/06/05 02:58:45;;;;;;;35.38;26.52;;;;;;;-142.75;65.00;77180.56;5051591;28;19912;-74
2021/06/05 03:01:10;;;;;;;;;;;;;;;-142.75;64.88;77182.53;5041366;28;20031;-75
2021/06/05 03:03:36;;;;;;;40.78;29.52;;;;;;;-142.75;65.01;77178.59;5032930;28;19913;-75
2021/06/05 03:06:03;;;;;;;41.05;28.40;;;;;;;-142.75;64.95;77176.63;5040414;28;20033;-75
2021/06/05 03:08:32;;;;;;;38.38;27.95;;;;;;;-142.75;64.95;77180.56;5052597;28;20025;-75
2021/06/05 03:10:58;;;;;;;37.15;26.60;;;;;;;-142.75;65.26;77180.56;5051517;28;20029;-75
2021/06/05 03:13:24;;;;;;;35.70;27.23;;;;;;;-142.75;65.34;77192.38;5037098;28;20045;-75
2021/06/05 03:15:50;;;;;;;33.22;27.10;;;;;;;-142.75;65.19;77188.44;5031163;28;20413;-75
2021/06/05 03:18:17;;;;;;;;;;;;;;;-142.75;65.16;77190.41;5040551;28;20437;-76
2021/06/05 03:20:45;;;;;;;31.55;24.42;;;;;;;-142.75;64.92;77188.44;5051040;28;20015;-75
2021/06/05 03:23:16;;;;;;;31.67;22.80;;;;;;;-142.75;64.92;77192.38;5052517;28;20037;-75
2021/06/05 03:25:41;;;;;;;33.53;23.48;;;;;;;-142.75;65.02;77188.44;5040119;28;20029;-75
2021/06/05 03:28:07;;;;;;;32.70;23.98;;;;;;;-142.75;65.48;77192.38;5031205;28;20025;-75
2021/06/05 03:30:33;;;;;;;;;;;;;;;-142.75;65.06;77188.44;5039671;28;20112;-74
2021/06/05 03:32:58;;;;;;;31.73;22.73;;;;;;;-142.75;65.19;77190.41;5053485;28;19912;-74
2021/06/05 03:35:23;;;;;;;;;;;;;;;-142.75;65.17;77192.38;5042826;28;20394;-74
2021/06/05 03:37:49;;;;;;;35.92;24.50;;;;;;;-142.75;65.37;77182.53;5034318;28;19927;-74
2021/06/05 03:40:19;;;;;;;34.85;25.20;;;;;;;-142.75;65.23;77180.56;5036957;28;20024;-75
2021/06/05 03:42:45;;;;;;;35.13;26.55;;;;;;;-142.75;65.48;77184.50;5051936;28;20051;-74
2021/06/05 03:45:10;;;;;;;;;;;;;;;-142.75;65.58;77196.31;5051208;28;20514;-74
2021/06/05 03:47:38;;;;;;;35.42;24.10;;;;;;;-142.75;65.46;77184.50;5040703;28;19920;-74
2021/06/05 03:50:05;;;;;;;32.67;23.98;;;;;;;-142.75;65.65;77192.38;5051150;28;20033;-76
2021/06/05 03:52:31;;;;;;;34.67;23.77;;;;;;;-142.75;65.63;77194.34;5030602;28;20032;-73
2021/06/05 03:54:57;;;;;;;40.53;26.15;;;;;;;-142.75;65.73;77204.19;5037843;28;20112;-75
2021/06/05 03:57:24;;;;;;;;;;;;;;;-142.75;65.74;77210.09;5045031;28;20016;-75
2021/06/05 03:59:53;;;;;;;36.08;26.77;;;;;;;-142.75;65.72;77202.22;5050334;28;20372;-75
2021/06/05 04:02:19;;;;;;;41.17;28.52;;;;;;;-142.75;66.21;77208.13;5049420;28;20025;-75
2021/06/05 04:04:44;;;;;;;;;;;;;;;-142.75;66.16;77214.03;5030736;28;20487;-75
2021/06/05 04:07:10;;;;;;;41.90;27.65;;;;;;;-142.75;66.26;77216.00;5038057;28;19963;-76
2021/06/05 04:09:36;;;;;;;;;;;;;;;-142.75;66.02;77208.13;5045525;28;20032;-74
2021/06/05 04:12:02;;;;;;;40.80;28.20;;;;;;;-142.75;66.08;77212.06;5037060;28;19966;-74
2021/06/05 04:14:27;;;;;;;;;;;;;;;-142.75;66.36;77210.09;5030824;28;20040;-75
2021/06/05 04:16:52;;;;;;;38.63;27.58;;;;;;;-142.75;66.47;77210.09;5050371;28;19912;-75
2021/06/05 04:19:18;;;;;;;;;;;;;;;-142.75;66.17;77217.97;5036022;28;20029;-72
2021/06/05 04:21:43;;;;;;;39.60;25.45;;;;;;;-142.75;66.48;77219.94;5034958;28;19912;-74
2021/06/05 04:24:08;;;;;;;;;;;;;;;-142.75;66.61;77217.97;5050778;28;20031;-74
2021/06/05 04:26:34;;;;;;;36.83;25.50;;;;;;;-142.75;66.79;77216.00;5049559;28;19912;-75
2021/06/05 04:28:59;;;;;;;;;;;;;;;-142.75;66.79;77217.97;5041656;28;20037;-75
2021/06/05 04:31:24;;;;;;;38.55;24.67;;;;;;;-142.75;66.78;77216.00;5048421;28;20279;-75
2021/06/05 04:33:49;;;;;;;;;;;;;;;-142.75;66.64;77204.19;5043559;28;20032;-75
2021/06/05 04:36:16;;;;;;;38.25;24.85;;;;;;;-142.75;66.67;77206.16;5044046;28;19974;-76
2021/06/05 04:38:43;;;;;;;35.88;23.98;;;;;;;-142.75;66.50;77196.31;5031250;28;20021;-75
2021/06/05 04:41:10;;;;;;;29.77;21.92;;;;;;;-142.75;66.22;77200.25;5040638;28;20065;-75
2021/06/05 04:43:38;;;;;;;33.38;22.17;;;;;;;-142.75;66.82;77200.25;5051552;28;20029;-74
2021/06/05 04:46:03;;;;;;;29.65;22.58;;;;;;;-142.75;66.65;77212.06;5035057;28;20040;-75
2021/06/05 04:48:29;;;;;;;32.92;23.50;;;;;;;-142.75;66.42;77223.88;5032226;28;20021;-74
2021/06/05 04:50:54;;;;;;;;;;;;;;;-142.75;66.63;77227.81;5038529;28;20025;-75
2021/06/05 04:53:19;;;;;;;34.20;24.95;;;;;;;-142.75;66.63;77223.88;5056226;28;19991;-76
2021/06/05 04:55:45;;;;;;;;;;;;;;;-142.75;66.70;77235.69;5048060;28;20017;-76
2021/06/05 04:58:11;;;;;;;38.38;28.05;;;;;;;-142.75;67.01;77247.50;5040159;28;19974;-75
2021/06/05 05:00:42;;;;;;;;;;;;;;;-142.75;66.88;77257.34;5051245;28;20032;-76
2021/06/05 05:03:10;;;;;;;34.65;24.92;;;;;;;-142.75;66.76;77267.19;5038443;28;19913;-76
2021/06/05 05:05:36;;;;;;;38.33;26.77;;;;;;;-142.75;67.10;77259.31;5049237;28;20017;-75
2021/06/05 05:08:02;;;;;;;36.00;26.02;;;;;;;-142.75;66.73;77255.38;5029602;28;20084;-76
2021/06/05 05:10:32;;;;;;;31.15;23.10;;;;;;;-142.75;66.53;77249.47;5039162;28;20489;-75
2021/06/05 05:12:59;;;;;;;32.03;23.20;;;;;;;-142.75;66.48;77257.34;5031651;28;20556;-76
2021/06/05 05:15:24;;;;;;;34.05;22.65;;;;;;;-142.75;66.60;77247.50;5047557;28;20070;-75
2021/06/05 05:17:50;;;;;;;28.70;21.05;;;;;;;-142.75;66.22;77253.41;5046876;28;20391;-75
2021/06/05 05:20:18;;;;;;;25.40;20.05;;;;;;;-142.75;66.51;77243.56;5029364;28;20120;-76
2021/06/05 05:22:44;;;;;;;25.90;18.80;;;;;;;-142.75;65.82;77245.53;5030648;28;20021;-76
2021/06/05 05:25:11;;;;;;;22.73;15.57;;;;;;;-142.75;65.91;77247.50;5042048;28;20036;-76
2021/06/05 05:27:36;;;;;;;19.88;14.70;;;;;;;-142.75;65.99;77243.56;5048770;28;20017;-77
2021/06/05 05:30:04;;;;;;;16.27;12.95;;;;;;;-142.75;65.91;77235.69;5032068;28;20030;-77
2021/06/05 05:32:30;;;;;;;16.88;12.35;;;;;;;-142.75;65.81;77225.84;5030435;28;20029;-76
2021/06/05 05:34:55;;;;;;;13.88;10.43;;;;;;;-142.75;65.12;77223.88;5030522;28;20075;-77
2021/06/05 05:37:20;;;;;;;14.40;10.20;;;;;;;-142.75;65.37;77210.09;5034449;28;20646;-76
2021/06/05 05:39:45;;;;;;;12.52;10.73;;;;;;;-142.75;65.07;77216.00;5049158;28;20074;-76
2021/06/05 05:42:11;;;;;;;14.98;12.55;;;;;;;-142.75;65.23;77216.00;5053056;28;20099;-76
2021/06/05 05:44:36;;;;;;;14.00;11.43;;;;;;;-142.75;65.46;77212.06;5054265;28;20104;-77
2021/06/05 05:47:01;;;;;;;;;;;;;;;-142.75;65.25;77216.00;5054490;28;20024;-76
2021/06/05 05:49:27;;;;;;;10.63;8.10;;;;;;;-142.75;65.07;77217.97;5052965;28;19921;-75
2021/06/05 05:51:52;;;;;;;;;;;;;;;-142.75;64.87;77221.91;5037470;28;20570;-76
2021/06/05 05:54:18;;;;;;;7.80;6.05;;;;;;;-142.75;64.53;77227.81;5043901;28;20019;-76
2021/06/05 05:56:43;;;;;;;;;;;;;;;-142.75;64.44;77233.72;5045206;28;20026;-77
2021/06/05 05:59:10;;;;;;;7.13;5.32;;;;;;;-142.75;64.78;77239.63;5034341;28;20283;-77
2021/06/05 06:01:36;;;;;;;6.75;5.47;;;;;;;-142.75;64.64;77235.69;5049487;28;20029;-77
2021/06/05 06:04:01;;;;;;;;;;;;;;;-142.75;64.85;77237.66;5050002;28;20035;-77
2021/06/05 06:06:29;;;;;;;8.45;6.88;;;;;;;-142.75;64.73;77243.56;5046441;28;20011;-75
2021/06/05 06:08:55;;;;;;;6.95;6.18;;;;;;;-142.75;65.00;77239.63;5052596;28;20027;-76
2021/06/05 06:11:20;;;;;;;;;;;;;;;-142.75;64.42;77245.53;5054312;28;20032;-76
2021/06/05 06:13:45;;;;;;;9.85;7.50;;;;;;;-142.75;64.08;77241.59;5052678;28;20011;-76
2021/06/05 06:16:12;;;;;;;;;;;;;;;-142.75;64.20;77251.44;5053945;28;20056;-77
2021/06/05 06:18:39;;;;;;;9.32;7.25;;;;;;;-142.75;64.24;77259.31;5052486;28;19920;-76
2021/06/05 06:21:08;;;;;;;9.13;8.23;;;;;;;-142.75;64.68;77265.22;5052399;28;20017;-76
2021/06/05 06:23:36;;;;;;;11.98;8.10;;;;;;;-142.75;64.62;77267.19;5042424;28;20510;-76
2021/06/05 06:26:05;;;;;;;10.98;8.60;;;;;;;-142.75;64.81;77275.06;5031979;28;20026;-76
2021/06/05 06:28:33;;;;;;;12.98;9.77;;;;;;;-142.75;64.83;77279.00;5032333;28;20018;-76
2021/06/05 06:30:59;;;;;;;13.20;10.23;;;;;;;-142.75;64.84;77275.06;5032339;28;20477;-76
2021/06/05 06:33:25;;;;;;;13.38;11.18;;;;;;;-142.75;64.50;77275.06;5047264;28;20032;-75
2021/06/05 06:35:51;;;;;;;;;;;;;;;-142.75;64.82;77280.97;5037899;28;20558;-76
2021/06/05 06:38:21;;;;;;;14.50;12.30;;;;;;;-142.75;65.06;77288.84;5032119;28;19959;-76
2021/06/05 06:40:47;;;;;;;18.73;15.43;;;;;;;-142.75;65.46;77302.63;5033338;28;20087;-77
2021/06/05 06:43:16;;;;;;;23.13;16.45;;;;;;;-142.75;65.37;77302.63;5032447;28;20018;-75
2021/06/05 06:45:42;;;;;;;23.42;17.60;;;;;;;-142.75;65.62;77318.38;5034345;28;20025;-76
2021/06/05 06:48:07;;;;;;;23.65;17.90;;;;;;;-142.75;65.70;77320.34;5033221;28;20074;-77
2021/06/05 06:50:33;;;;;;;;;;;;;;;-142.75;65.66;77312.47;5033802;28;20068;-76
2021/06/05 06:52:59;;;;;;;24.70;17.92;;;;;;;-142.75;65.75;77310.50;5048010;28;20294;-76
2021/06/05 06:55:25;;;;;;;;;;;;;;;-142.75;65.74;77304.59;5049619;28;20029;-77
2021/06/05 06:57:51;;;;;;;28.40;19.85;;;;;;;-142.75;65.76;77318.38;5050966;28;19920;-75
2021/06/05 07:00:25;;;;;;;24.88;18.55;;;;;;;-142.75;66.19;77302.63;5034274;28;20029;-75
2021/06/05 07:02:50;;;;;;;27.48;19.20;;;;;;;-142.75;65.40;77298.69;5045536;28;20027;-75
2021/06/05 07:05:16;;;;;;;24.02;18.90;;;;;;;-142.75;65.34;77292.78;5033880;28;20398;-74
2021/06/05 07:07:41;;;;;;;;;;;;;;;-142.75;64.91;77279.00;5046813;28;20032;-74
2021/06/05 07:10:09;;;;;;;21.98;17.73;;;;;;;-142.75;64.84;77282.94;5047514;28;19925;-74
2021/06/05 07:12:34;;;;;;;23.83;19.00;;;;;;;-142.75;65.53;77280.97;5049701;28;20068;-74
2021/06/05 07:15:00;;;;;;;20.60;15.57;;;;;;;-142.75;64.94;77263.25;5032651;28;20082;-74
2021/06/05 07:17:25;;;;;;;;;;;;;;;-142.75;64.84;77273.09;5031503;28;20368;-74
2021/06/05 07:19:50;;;;;;;22.45;14.75;;;;;;;-142.75;64.33;77251.44;5050073;28;19924;-75
2021/06/05 07:22:15;;;;;;;;;;;;;;;-142.75;64.04;77243.56;5044953;28;20025;-74
2021/06/05 07:24:41;;;;;;;19.17;13.27;;;;;;;-142.75;63.95;77237.66;5034200;28;19913;-73
2021/06/05 07:27:06;;;;;;;;;;;;;;;-142.75;63.88;77231.75;5032642;28;20096;-73
2021/06/05 07:29:32;;;;;;;20.60;13.40;;;;;;;-142.75;64.02;77223.88;5047717;28;19917;-72
2021/06/05 07:31:57;;;;;;;;;;;;;;;-142.75;63.05;77216.00;5032900;28;20038;-74
2021/06/05 07:34:25;;;;;;;14.32;10.82;;;;;;;-142.75;63.14;77194.34;5050513;28;19913;-72
2021/06/05 07:36:54;;;;;;;18.48;10.88;;;;;;;-142.75;63.13;77200.25;5051706;28;20123;-74
2021/06/05 07:39:27;;;;;;;13.73;11.05;;;;;;;-142.75;62.01;77184.50;5067102;28;20032;-74
2021/06/05 07:41:53;;;;;;;13.98;10.43;;;;;;;-142.75;61.87;77182.53;5045581;28;20502;-73
2021/06/05 07:44:21;;;;;;;13.18;10.20;;;;;;;-142.75;62.09;77178.59;5051825;28;20036;-74
2021/06/05 07:46:50;;;;;;;12.65;10.20;;;;;;;-142.75;62.15;77210.09;5050353;28;20098;-73
2021/06/05 07:49:16;;;;;;;13.43;10.40;;;;;;;-142.75;62.53;77219.94;5050807;28;20513;-74
2021/06/05 07:51:41;;;;;;;;;;;;;;;-142.75;63.00;77251.44;5051147;28;20056;-73
2021/06/05 07:54:06;;;;;;;14.82;11.43;;;;;;;-142.75;63.45;77255.38;5051304;28;19959;-74
2021/06/05 07:56:32;;;;;;;;;;;;;;;-142.75;63.20;77263.25;5051931;28;20490;-76
2021/06/05 07:58:58;;;;;;;15.27;11.68;;;;;;;-142.75;63.38;77257.34;5034616;28;19920;-75
2021/06/05 08:01:25;;;;;;;;;;;;;;;-142.75;63.29;77269.16;5040700;28;20029;-73
2021/06/05 08:03:51;;;;;;;16.40;12.27;;;;;;;-142.75;63.45;77265.22;5042042;28;20491;-74
2021/06/05 08:06:16;;;;;;;;;;;;;;;-142.75;62.61;77263.25;5031861;28;20029;-76
2021/06/05 08:08:42;;;;;;;16.95;12.50;;;;;;;-142.75;62.82;77259.31;5031657;28;19913;-74
2021/06/05 08:11:07;;;;;;;;;;;;;;;-142.75;63.14;77267.19;5041795;28;20398;-75
2021/06/05 08:13:33;;;;;;;17.13;13.45;;;;;;;-142.75;62.94;77269.16;5037102;28;19966;-76
2021/06/05 08:15:58;;;;;;;;;;;;;;;-142.75;62.70;77267.19;5031745;28;20076;-75
2021/06/05 08:18:23;;;;;;;19.02;14.95;;;;;;;-142.75;63.55;77279.00;5035822;28;19916;-75
2021/06/05 08:20:55;;;;;;;;;;;;;;;-142.75;62.94;77271.13;5044196;28;20033;-76
2021/06/05 08:23:23;;;;;;;15.30;12.63;;;;;;;-142.75;62.90;77273.09;5047376;28;19956;-75
2021/06/05 08:25:49;;;;;;;17.13;13.32;;;;;;;-142.75;63.26;77273.09;5030595;28;20032;-75
2021/06/05 08:28:14;;;;;;;;;;;;;;;-142.75;63.23;77275.06;5030553;28;20018;-76
2021/06/05 08:30:45;;;;;;;15.30;11.98;;;;;;;-142.75;62.73;77277.03;5031351;28;19970;-75
2021/06/05 08:33:12;;;;;;;14.68;13.13;;;;;;;-142.75;62.64;77282.94;5030130;28;20026;-75
2021/06/05 08:35:38;;;;;;;15.23;13.45;;;;;;;-142.75;62.77;77292.78;5033957;28;20021;-76
2021/06/05 08:38:05;;;;;;;;;;;;;;;-142.75;62.74;77296.72;5040710;28;20039;-75
2021/06/05 08:40:54;;;;;;;16.60;14.07;;;;;;;-142.75;63.22;77300.66;5036130;28;19921;-74
2021/06/05 08:43:49;;;;;;;16.10;14.15;;;;;;;-142.75;63.34;77310.50;5047687;28;20098;-76
2021/06/05 08:46:22;;;;;;;16.55;13.45;;;;;;;-142.75;63.46;77304.59;5045245;28;20021;-75
2021/06/05 08:48:48;;;;;;;17.45;12.93;;;;;;;-142.75;63.28;77310.50;5042809;28;20021;-75
2021/06/05 08:51:22;;;;;;;16.75;13.15;;;;;;;-142.75;63.72;77314.44;5039096;28;20048;-75
2021/06/05 08:53:49;;;;;;;17.48;12.18;;;;;;;-142.75;63.97;77310.50;5030870;28;20029;-74
2021/06/05 08:56:18;;;;;;;14.50;12.57;;;;;;;-142.75;64.05;77300.66;5029255;28;20028;-75
2021/06/05 08:58:48;;;;;;;15.25;11.52;;;;;;;-142.75;63.29;77290.81;5044643;28;20027;-75
2021/06/05 09:01:17;;;;;;;12.95;10.27;;;;;;;-142.75;62.67;77271.13;5046899;28;20032;-75
2021/06/05 09:03:45;;;;;;;12.55;10.27;;;;;;;-142.75;62.98;77271.13;5035451;28;20052;-76
2021/06/05 09:06:39;;;;;;;11.55;9.38;;;;;;;-142.75;62.40;77273.09;5030620;28;20025;-75
2021/06/05 09:09:12;;;;;;;13.13;9.73;;;;;;;-142.75;62.80;77263.25;5039126;28;20021;-75
2021/06/05 09:11:37;;;;;;;11.43;9.93;;;;;;;-142.75;63.20;77245.53;5049245;28;20039;-75
2021/06/05 09:14:02;;;;;;;;;;;;;;;-142.75;62.05;77223.88;5048743;28;20025;-76
2021/06/05 09:16:47;;;;;;;10.55;8.95;;;;;;;-142.75;61.10;77206.16;5045821;28;19913;-75
2021/06/05 09:19:29;;;;;;;11.40;8.65;;;;;;;-142.75;61.42;77200.25;5039199;28;20108;-75
2021/06/05 09:22:14;;;;;;;10.02;8.45;;;;;;;-142.75;61.40;77204.19;5049677;28;20021;-76
2021/06/05 09:24:52;;;;;;;11.82;9.00;;;;;;;-142.75;61.08;77206.16;5038256;28;20080;-75
2021/06/05 09:27:17;;;;;;;12.75;9.85;;;;;;;-142.75;61.56;77200.25;5050271;28;20021;-75
2021/06/05 09:29:50;;;;;;;;;;;;;;;-142.75;60.54;77178.59;5038538;28;20394;-75
2021/06/05 09:35:03;;;;;;;13.82;10.40;;;;;;;-142.75;61.15;77151.03;5048539;28;20037;-75
2021/06/05 09:37:38;;;;;;;11.80;9.63;;;;;;;-142.75;59.32;77127.41;5031446;28;20021;-75
2021/06/05 09:40:33;;;;;;;10.95;8.80;;;;;;;-142.75;59.72;77121.50;5064382;28;20032;-75
2021/06/05 09:43:07;;;;;;;12.98;10.50;;;;;;;-142.75;59.71;77154.97;5070896;28;20124;-75
2021/06/05 09:45:41;;;;;;;11.90;9.95;;;;;;;-142.75;60.47;77180.56;5069805;28;20032;-75
2021/06/05 09:48:46;;;;;;;13.00;9.75;;;;;;;-142.75;60.66;77168.75;5069439;28;20032;-75
2021/06/05 09:51:34;;;;;;;13.80;10.57;;;;;;;-142.75;61.58;77172.69;5064351;28;20055;-75
2021/06/05 09:54:03;;;;;;;9.98;8.50;;;;;;;-142.75;59.94;77153.00;5064126;28;20064;-75
2021/06/05 09:56:37;;;;;;;9.77;7.75;;;;;;;-142.75;59.69;77133.31;5050176;28;20028;-75
2021/06/05 09:59:33;;;;;;;14.70;8.95;;;;;;;-142.75;60.00;77121.50;5050753;28;20100;-74
2021/06/05 10:02:06;;;;;;;13.68;8.88;;;;;;;-142.75;58.79;77111.66;5053563;28;20021;-75
2021/06/05 10:04:35;;;;;;;12.48;9.75;;;;;;;-142.75;59.15;77090.00;5070285;28;20028;-74
2021/06/05 10:07:01;;;;;;;12.68;9.23;;;;;;;-142.75;58.52;77076.22;5070319;28;20027;-75
2021/06/05 10:09:27;;;;;;;14.80;10.25;;;;;;;-142.75;58.17;77048.66;5070618;28;20028;-75
2021/06/05 10:12:03;;;;;;;;;;;;;;;-142.75;58.17;77021.09;5070887;28;20020;-75
2021/06/05 10:14:55;;;;;;;14.65;11.10;;;;;;;-142.75;58.26;77009.28;5061319;28;20398;-75
2021/06/05 10:17:33;;;;;;;15.05;11.93;;;;;;;-142.75;56.76;77021.09;5041078;28;20037;-75
2021/06/05 10:20:21;;;;;;;15.48;11.60;;;;;;;-142.75;58.30;77036.84;5048994;28;20029;-74
2021/06/05 10:22:55;;;;;;;20.52;14.50;;;;;;;-142.75;58.58;77044.72;5050018;28;20503;-74
2021/06/05 10:25:38;;;;;;;20.40;14.10;;;;;;;-142.75;58.66;77070.31;5049538;28;20479;-74
2021/06/05 10:28:26;;;;;;;19.55;14.43;;;;;;;-142.75;58.35;77066.38;5063456;28;20434;-75
2021/06/05 10:31:01;;;;;;;19.27;13.77;;;;;;;-142.75;57.60;77050.63;5073268;28;20036;-74
2021/06/05 10:33:35;;;;;;;20.52;15.27;;;;;;;-142.75;57.75;77034.88;5072504;28;20389;-75
2021/06/05 10:36:04;;;;;;;17.52;13.55;;;;;;;-142.75;57.23;77005.34;5072130;28;20031;-75
2021/06/05 10:38:38;;;;;;;23.13;15.77;;;;;;;-142.75;57.85;77021.09;5072711;28;20100;-74
2021/06/05 10:41:06;;;;;;;19.10;13.52;;;;;;;-142.75;56.88;76997.47;5073826;28;20031;-75
2021/06/05 10:43:31;;;;;;;17.63;13.02;;;;;;;-142.75;57.05;77032.91;5074127;28;20024;-75
2021/06/05 10:45:58;;;;;;;18.33;13.15;;;;;;;-142.75;56.92;77028.97;5073858;28;20081;-75
2021/06/05 10:48:35;;;;;;;19.25;12.35;;;;;;;-142.75;57.28;77003.38;5067548;28;20124;-76
2021/06/05 10:51:19;;;;;;;17.05;12.05;;;;;;;-142.75;56.65;77009.28;5053815;28;20128;-75
2021/06/05 10:53:56;;;;;;;19.52;11.68;;;;;;;-142.75;57.13;76979.75;5058905;28;20020;-75
2021/06/05 10:56:58;;;;;;;18.27;12.48;;;;;;;-142.75;56.33;76960.06;5071864;28;20032;-75
2021/06/05 10:59:41;;;;;;;14.55;10.80;;;;;;;-142.75;56.00;76987.63;5073508;28;20099;-75
2021/06/05 11:02:08;;;;;;;16.48;11.43;;;;;;;-142.75;56.62;77001.41;5073754;28;20111;-75
2021/06/05 11:04:38;;;;;;;17.70;12.07;;;;;;;-142.75;56.95;76991.56;5073136;28;20034;-76
2021/06/05 11:07:03;;;;;;;20.08;12.60;;;;;;;-142.75;55.89;76956.13;5073084;28;20539;-76
2021/06/05 11:09:29;;;;;;;21.02;13.10;;;;;;;-142.75;55.07;76924.63;5072432;28;20032;-74
2021/06/05 11:12:02;;;;;;;19.23;13.40;;;;;;;-142.75;55.31;76901.00;5072312;28;20036;-75
2021/06/05 11:14:36;;;;;;;19.77;12.63;;;;;;;-142.75;54.53;76843.91;5072874;28;20037;-75
2021/06/05 11:17:04;;;;;;;23.98;15.95;;;;;;;-142.75;55.24;76873.44;5072846;28;20028;-76
2021/06/05 11:19:41;;;;;;;24.30;15.43;;;;;;;-142.75;55.60;76861.63;5073008;28;20029;-75
2021/06/05 11:22:19;;;;;;;25.95;16.55;;;;;;;-142.75;55.56;76867.53;5073024;28;20051;-75
2021/06/05 11:25:07;;;;;;;27.15;18.23;;;;;;;-142.75;55.13;76841.94;5071965;28;20028;-75
2021/06/05 11:27:35;;;;;;;23.38;16.88;;;;;;;-142.75;54.73;76853.75;5072317;28;20497;-75
2021/06/05 11:30:03;;;;;;;24.50;17.15;;;;;;;-142.75;54.90;76893.13;5072536;28;20040;-75
2021/06/05 11:32:35;;;;;;;24.42;17.27;;;;;;;-142.75;54.49;76918.72;5057305;28;20029;-74